createdAt,value
2022-08-27T00:01:16.370Z,58.82
2022-08-27T00:03:44.966Z,58.92
2022-08-27T00:06:17.103Z,59.16
2022-08-27T00:08:44.905Z,59.07
2022-08-27T00:11:12.505Z,59.46
2022-08-27T00:13:40.376Z,59.29
2022-08-27T00:16:10.373Z,59.26
2022-08-27T00:18:38.225Z,59.24
2022-08-27T00:21:04.995Z,59.07
2022-08-27T00:23:34.473Z,59.24
2022-08-27T00:26:01.446Z,59.24
2022-08-27T00:28:29.011Z,59.18
2022-08-27T00:30:56.189Z,59.17
2022-08-27T00:33:23.684Z,58.76
2022-08-27T00:35:51.208Z,58.76
2022-08-27T00:38:18.874Z,58.96
2022-08-27T00:40:45.657Z,59.26
2022-08-27T00:43:12.643Z,59.38
2022-08-27T00:45:43.713Z,59.38
2022-08-27T00:48:15.251Z,59.24
2022-08-27T00:50:49.574Z,59.55
2022-08-27T00:53:19.366Z,59.99
2022-08-27T00:55:50.773Z,59.76
2022-08-27T00:58:38.972Z,59.68
2022-08-27T01:01:08.849Z,60.16
2022-08-27T01:03:36.038Z,60.15
2022-08-27T01:06:05.867Z,60.85
2022-08-27T01:08:37.348Z,60.61
2022-08-27T01:11:05.873Z,60.84
2022-08-27T01:13:54.495Z,60.77
2022-08-27T01:16:25.312Z,61.12
2022-08-27T01:18:53.712Z,60.69
2022-08-27T01:21:30.776Z,60.47
2022-08-27T01:24:06.754Z,60.66
2022-08-27T01:26:33.572Z,60.96
2022-08-27T01:29:00.295Z,60.91
2022-08-27T01:31:27.257Z,60.88
2022-08-27T01:33:59.965Z,60.81
2022-08-27T01:36:27.180Z,60.16
2022-08-27T01:38:53.630Z,60.26
2022-08-27T01:41:21.248Z,60.34
2022-08-27T01:43:48.558Z,61.01
2022-08-27T01:46:15.048Z,60.96
2022-08-27T01:48:42.134Z,60.36
2022-08-27T01:51:09.801Z,60.40
2022-08-27T01:53:36.504Z,59.92
2022-08-27T01:56:04.706Z,59.94
2022-08-27T01:58:32.891Z,59.85
2022-08-27T02:01:08.600Z,59.57
2022-08-27T02:03:37.197Z,60.00
2022-08-27T02:06:07.156Z,60.15
2022-08-27T02:08:33.637Z,59.76
2022-08-27T02:11:01.233Z,60.50
2022-08-27T02:13:27.930Z,60.48
2022-08-27T02:15:54.553Z,60.64
2022-08-27T02:18:21.054Z,60.45
2022-08-27T02:20:48.513Z,59.60
2022-08-27T02:23:16.258Z,59.32
2022-08-27T02:25:42.740Z,59.80
2022-08-27T02:28:09.895Z,59.74
2022-08-27T02:30:37.385Z,60.17
2022-08-27T02:33:05.633Z,59.69
2022-08-27T02:35:34.476Z,60.18
2022-08-27T02:38:01.996Z,59.74
2022-08-27T02:40:28.853Z,59.81
2022-08-27T02:42:55.370Z,59.55
2022-08-27T02:45:21.868Z,59.55
2022-08-27T02:47:48.529Z,59.40
2022-08-27T02:50:15.267Z,59.33
2022-08-27T02:52:41.702Z,59.62
2022-08-27T02:55:08.575Z,59.05
2022-08-27T02:57:36.632Z,59.30
2022-08-27T03:00:06.342Z,59.07
2022-08-27T03:02:32.852Z,58.95
2022-08-27T03:04:59.382Z,58.83
2022-08-27T03:07:25.875Z,58.55
2022-08-27T03:09:52.762Z,58.71
2022-08-27T03:12:19.624Z,58.85
2022-08-27T03:14:49.130Z,58.86
2022-08-27T03:17:34.227Z,58.70
2022-08-27T03:20:02.007Z,58.25
2022-08-27T03:22:28.531Z,58.10
2022-08-27T03:24:56.359Z,58.01
2022-08-27T03:27:22.926Z,58.18
2022-08-27T03:29:49.371Z,58.36
2022-08-27T03:32:15.837Z,58.57
2022-08-27T03:34:42.390Z,58.24
2022-08-27T03:37:09.089Z,58.33
2022-08-27T03:39:35.579Z,58.87
2022-08-27T03:42:02.351Z,58.86
2022-08-27T03:44:28.921Z,58.56
2022-08-27T03:46:55.491Z,59.00
2022-08-27T03:49:22.206Z,58.85
2022-08-27T03:51:50.563Z,59.09
2022-08-27T03:54:17.159Z,58.96
2022-08-27T03:56:43.565Z,59.10
2022-08-27T03:59:10.115Z,58.73
2022-08-27T04:01:36.738Z,58.76
2022-08-27T04:04:03.686Z,58.74
2022-08-27T04:06:30.366Z,59.12
2022-08-27T04:08:56.765Z,59.17
2022-08-27T04:11:23.369Z,59.24
2022-08-27T04:13:49.908Z,59.62
2022-08-27T04:16:16.633Z,59.38
2022-08-27T04:18:43.070Z,59.33
2022-08-27T04:21:12.760Z,59.08
2022-08-27T04:23:40.114Z,59.10
2022-08-27T04:26:08.153Z,59.06
2022-08-27T04:28:38.386Z,58.87
2022-08-27T04:31:06.083Z,59.25
2022-08-27T04:33:32.548Z,59.13
2022-08-27T04:36:00.776Z,59.18
2022-08-27T04:38:27.857Z,58.92
2022-08-27T04:41:13.461Z,58.48
2022-08-27T04:43:40.018Z,58.55
2022-08-27T04:46:06.750Z,58.39
2022-08-27T04:48:33.298Z,58.23
2022-08-27T04:51:00.873Z,58.26
2022-08-27T04:53:30.564Z,58.00
2022-08-27T04:55:57.610Z,57.61
2022-08-27T04:58:26.121Z,57.83
2022-08-27T05:01:00.030Z,57.53
2022-08-27T05:03:26.766Z,57.78
2022-08-27T05:05:59.538Z,57.86
2022-08-27T05:08:25.958Z,58.09
2022-08-27T05:10:52.542Z,58.07
2022-08-27T05:13:21.282Z,57.95
2022-08-27T05:15:48.019Z,58.09
2022-08-27T05:18:14.666Z,58.13
2022-08-27T05:20:44.932Z,57.89
2022-08-27T05:23:12.970Z,57.50
2022-08-27T05:25:41.685Z,57.85
2022-08-27T05:28:09.426Z,57.88
2022-08-27T05:30:42.660Z,57.07
2022-08-27T05:33:10.245Z,56.49
2022-08-27T05:35:44.125Z,56.69
2022-08-27T05:38:11.364Z,56.83
2022-08-27T05:40:40.425Z,56.86
2022-08-27T05:43:07.109Z,56.79
2022-08-27T05:45:39.982Z,56.74
2022-08-27T05:48:10.716Z,57.15
2022-08-27T05:50:41.847Z,56.83
2022-08-27T05:53:08.297Z,56.88
2022-08-27T05:55:39.091Z,56.33
2022-08-27T05:58:07.059Z,56.96
2022-08-27T06:00:52.775Z,56.70
2022-08-27T06:03:19.218Z,56.97
2022-08-27T06:05:45.842Z,56.91
2022-08-27T06:08:12.569Z,56.70
2022-08-27T06:10:42.791Z,56.89
2022-08-27T06:13:09.506Z,56.92
2022-08-27T06:15:36.107Z,57.36
2022-08-27T06:18:05.188Z,57.51
2022-08-27T06:20:31.769Z,57.42
2022-08-27T06:22:58.475Z,56.82
2022-08-27T06:25:25.192Z,56.31
2022-08-27T06:27:51.740Z,55.87
2022-08-27T06:30:18.287Z,56.34
2022-08-27T06:32:44.719Z,56.36
2022-08-27T06:35:11.661Z,56.23
2022-08-27T06:37:38.091Z,55.76
2022-08-27T06:40:04.838Z,55.81
2022-08-27T06:42:31.623Z,56.63
2022-08-27T06:45:01.315Z,56.62
2022-08-27T06:47:27.783Z,56.30
2022-08-27T06:49:54.378Z,56.17
2022-08-27T06:52:20.823Z,56.13
2022-08-27T06:54:47.323Z,55.60
2022-08-27T06:57:13.723Z,55.45
2022-08-27T06:59:40.217Z,55.41
2022-08-27T07:02:07.911Z,55.51
2022-08-27T07:04:34.398Z,55.78
2022-08-27T07:07:02.503Z,55.43
2022-08-27T07:09:31.923Z,56.15
2022-08-27T07:11:59.019Z,56.28
2022-08-27T07:14:25.517Z,55.92
2022-08-27T07:16:52.321Z,55.72
2022-08-27T07:19:19.573Z,55.57
2022-08-27T07:21:48.270Z,55.17
2022-08-27T07:24:15.345Z,55.24
2022-08-27T07:26:43.633Z,55.47
2022-08-27T07:29:14.303Z,55.26
2022-08-27T07:31:41.931Z,55.56
2022-08-27T07:34:08.306Z,55.23
2022-08-27T07:36:35.566Z,55.53
2022-08-27T07:39:02.453Z,54.87
2022-08-27T07:41:31.225Z,54.84
2022-08-27T07:44:19.895Z,54.77
2022-08-27T07:46:48.592Z,54.81
2022-08-27T07:49:17.234Z,54.95
2022-08-27T07:51:43.820Z,55.64
2022-08-27T07:54:10.696Z,55.53
2022-08-27T07:56:37.159Z,55.50
2022-08-27T07:59:03.603Z,55.70
2022-08-27T08:01:30.149Z,55.88
2022-08-27T08:03:57.009Z,55.49
2022-08-27T08:06:23.474Z,55.85
2022-08-27T08:08:49.924Z,55.83
2022-08-27T08:11:18.285Z,55.91
2022-08-27T08:13:46.026Z,55.73
2022-08-27T08:16:13.400Z,55.74
2022-08-27T08:18:40.603Z,55.11
2022-08-27T08:21:10.325Z,55.27
2022-08-27T08:23:38.260Z,55.11
2022-08-27T08:26:08.253Z,54.88
2022-08-27T08:28:34.683Z,54.88
2022-08-27T08:31:01.558Z,54.61
2022-08-27T08:33:28.238Z,54.63
2022-08-27T08:35:54.896Z,54.44
2022-08-27T08:38:21.808Z,55.02
2022-08-27T08:40:54.474Z,54.72
2022-08-27T08:43:51.355Z,54.96
2022-08-27T08:46:27.265Z,54.78
2022-08-27T08:48:59.693Z,54.90
2022-08-27T08:51:36.503Z,54.76
2022-08-27T08:54:10.641Z,54.76
2022-08-27T08:56:56.831Z,54.95
2022-08-27T08:59:33.544Z,54.47
2022-08-27T09:02:00.628Z,54.45
2022-08-27T09:04:28.213Z,54.26
2022-08-27T09:07:09.495Z,54.16
2022-08-27T09:09:51.961Z,54.11
2022-08-27T09:12:27.047Z,54.50
2022-08-27T09:14:56.224Z,54.49
2022-08-27T09:17:23.636Z,54.45
2022-08-27T09:19:52.612Z,53.96
2022-08-27T09:22:56.427Z,53.99
2022-08-27T09:25:31.767Z,53.89
2022-08-27T09:28:27.835Z,53.40
2022-08-27T09:30:55.845Z,53.37
2022-08-27T09:33:22.667Z,53.17
2022-08-27T09:35:52.096Z,53.43
2022-08-27T09:38:28.427Z,53.47
2022-08-27T09:40:58.911Z,52.73
2022-08-27T09:43:28.361Z,52.94
2022-08-27T09:45:57.541Z,52.95
2022-08-27T09:48:33.082Z,52.51
2022-08-27T09:51:10.856Z,52.77
2022-08-27T09:53:44.019Z,52.17
2022-08-27T09:56:23.324Z,52.00
2022-08-27T09:58:53.734Z,51.93
2022-08-27T10:01:23.766Z,52.92
2022-08-27T10:03:51.018Z,52.34
2022-08-27T10:06:28.812Z,51.99
2022-08-27T10:09:07.003Z,51.42
2022-08-27T10:11:49.279Z,51.60
2022-08-27T10:14:26.417Z,51.60
2022-08-27T10:17:13.081Z,50.97
2022-08-27T10:19:42.542Z,51.73
2022-08-27T10:22:41.348Z,51.57
2022-08-27T10:25:22.830Z,50.88
2022-08-27T10:28:11.303Z,50.74
2022-08-27T10:31:05.857Z,51.00
2022-08-27T10:33:57.852Z,51.12
2022-08-27T10:37:04.385Z,50.76
2022-08-27T10:39:53.074Z,50.71
2022-08-27T10:42:48.770Z,50.25
2022-08-27T10:45:45.722Z,50.06
2022-08-27T10:48:14.906Z,49.93
2022-08-27T10:50:55.257Z,49.74
2022-08-27T10:53:44.686Z,49.93
2022-08-27T10:56:37.389Z,50.04
2022-08-27T10:59:06.852Z,49.65
2022-08-27T11:01:53.549Z,49.48
2022-08-27T11:04:29.665Z,50.09
2022-08-27T11:07:06.899Z,50.21
2022-08-27T11:09:39.452Z,49.71
2022-08-27T11:12:14.836Z,49.74
2022-08-27T11:15:00.316Z,49.00
2022-08-27T11:17:44.871Z,49.60
2022-08-27T11:20:33.316Z,49.34
2022-08-27T11:23:12.087Z,48.94
2022-08-27T11:26:11.884Z,48.89
2022-08-27T11:28:50.287Z,48.99
2022-08-27T11:31:24.361Z,49.04
2022-08-27T11:34:15.335Z,48.56
2022-08-27T11:37:03.215Z,47.86
2022-08-27T11:39:54.423Z,48.14
2022-08-27T11:42:50.327Z,48.03
2022-08-27T11:45:30.842Z,47.22
2022-08-27T11:48:00.768Z,47.21
2022-08-27T11:50:34.061Z,46.77
2022-08-27T11:53:05.831Z,46.99
2022-08-27T11:55:39.025Z,46.67
2022-08-27T11:58:17.890Z,46.40
2022-08-27T12:00:46.422Z,46.20
2022-08-27T12:03:18.644Z,46.64
2022-08-27T12:05:55.569Z,46.37
2022-08-27T12:08:21.962Z,46.28
2022-08-27T12:11:07.492Z,46.39
2022-08-27T12:13:49.092Z,45.35
2022-08-27T12:16:18.508Z,46.03
2022-08-27T12:19:06.346Z,45.83
2022-08-27T12:22:15.844Z,45.32
2022-08-27T12:24:42.320Z,45.44
2022-08-27T12:27:25.909Z,46.20
2022-08-27T12:29:56.551Z,46.04
2022-08-27T12:32:29.069Z,45.27
2022-08-27T12:35:15.762Z,45.12
2022-08-27T12:38:09.844Z,44.66
2022-08-27T12:40:46.623Z,44.32
2022-08-27T12:43:20.008Z,45.18
2022-08-27T12:45:51.071Z,45.00
2022-08-27T12:48:25.193Z,45.18
2022-08-27T12:51:04.300Z,44.71
2022-08-27T12:53:52.545Z,44.82
2022-08-27T12:56:41.336Z,45.26
2022-08-27T12:59:23.764Z,45.34
2022-08-27T13:02:09.750Z,45.72
2022-08-27T13:04:39.808Z,45.03
2022-08-27T13:07:06.369Z,45.40
2022-08-27T13:09:37.710Z,45.16
2022-08-27T13:12:14.110Z,44.67
2022-08-27T13:14:44.193Z,45.23
2022-08-27T13:17:19.870Z,44.84
2022-08-27T13:19:59.804Z,44.62
2022-08-27T13:22:31.590Z,45.22
2022-08-27T13:25:02.362Z,44.90
2022-08-27T13:27:32.411Z,45.14
2022-08-27T13:30:11.939Z,45.21
2022-08-27T13:32:54.043Z,45.17
2022-08-27T13:35:21.218Z,44.99
2022-08-27T13:37:51.487Z,45.20
2022-08-27T13:40:30.771Z,45.53
2022-08-27T13:43:08.878Z,45.68
2022-08-27T13:45:38.122Z,45.75
2022-08-27T13:48:05.623Z,45.66
2022-08-27T13:50:34.430Z,44.93
2022-08-27T13:53:29.964Z,45.70
2022-08-27T13:55:58.399Z,45.11
2022-08-27T13:58:31.104Z,45.25
2022-08-27T14:01:25.789Z,45.44
2022-08-27T14:04:09.573Z,45.70
2022-08-27T14:06:43.208Z,45.58
2022-08-27T14:09:25.433Z,45.39
2022-08-27T14:12:07.968Z,45.07
2022-08-27T14:17:34.940Z,45.16
2022-08-27T14:20:04.393Z,45.11
2022-08-27T14:22:36.579Z,45.64
2022-08-27T14:25:03.982Z,44.84
2022-08-27T14:27:31.805Z,45.22
2022-08-27T14:29:58.468Z,45.62
2022-08-27T14:32:24.922Z,44.80
2022-08-27T14:34:51.447Z,45.38
2022-08-27T14:37:17.897Z,45.78
2022-08-27T14:39:44.896Z,45.56
2022-08-27T14:42:12.153Z,45.74
2022-08-27T14:44:38.898Z,45.85
2022-08-27T14:47:09.501Z,45.36
2022-08-27T14:49:40.100Z,45.28
2022-08-27T14:52:07.960Z,45.41
2022-08-27T14:54:35.216Z,45.65
2022-08-27T14:57:03.540Z,45.22
2022-08-27T14:59:30.465Z,45.25
2022-08-27T15:01:58.548Z,44.94
2022-08-27T15:04:26.174Z,45.69
2022-08-27T15:06:54.600Z,45.49
2022-08-27T15:09:22.251Z,45.64
2022-08-27T15:11:49.322Z,45.73
2022-08-27T15:14:36.133Z,45.09
2022-08-27T15:17:21.400Z,45.25
2022-08-27T15:19:52.026Z,45.61
2022-08-27T15:22:21.997Z,45.90
2022-08-27T15:24:54.434Z,45.77
2022-08-27T15:27:21.340Z,45.85
2022-08-27T15:29:48.800Z,45.71
2022-08-27T15:32:29.167Z,46.10
2022-08-27T15:34:57.286Z,45.69
2022-08-27T15:37:24.533Z,45.83
2022-08-27T15:39:51.737Z,45.78
2022-08-27T15:42:18.521Z,45.65
2022-08-27T15:44:48.526Z,46.09
2022-08-27T15:47:19.340Z,46.16
2022-08-27T15:49:46.217Z,45.93
2022-08-27T15:52:16.164Z,46.28
2022-08-27T15:54:44.549Z,46.06
2022-08-27T15:57:11.278Z,45.70
2022-08-27T15:59:37.767Z,46.12
2022-08-27T16:02:07.398Z,46.05
2022-08-27T16:04:33.891Z,46.09
2022-08-27T16:07:00.316Z,46.14
2022-08-27T16:09:26.965Z,46.22
2022-08-27T16:11:54.397Z,46.22
2022-08-27T16:14:20.976Z,46.29
2022-08-27T16:16:50.012Z,45.92
2022-08-27T16:19:19.715Z,45.69
2022-08-27T16:21:47.333Z,45.76
2022-08-27T16:24:14.145Z,45.74
2022-08-27T16:26:40.879Z,45.88
2022-08-27T16:29:07.883Z,46.22
2022-08-27T16:31:36.952Z,45.91
2022-08-27T16:34:09.772Z,45.70
2022-08-27T16:36:36.193Z,45.72
2022-08-27T16:39:03.083Z,45.94
2022-08-27T16:41:29.588Z,46.24
2022-08-27T16:43:58.748Z,46.00
2022-08-27T16:46:25.397Z,45.58
2022-08-27T16:49:10.850Z,45.59
2022-08-27T16:51:38.098Z,45.76
2022-08-27T16:54:06.372Z,46.20
2022-08-27T16:56:37.081Z,46.63
2022-08-27T16:59:05.340Z,46.29
2022-08-27T17:01:33.228Z,46.44
2022-08-27T17:04:14.486Z,46.08
2022-08-27T17:06:45.131Z,45.75
2022-08-27T17:09:12.427Z,46.17
2022-08-27T17:11:41.868Z,46.00
2022-08-27T17:14:13.176Z,46.05
2022-08-27T17:16:41.509Z,46.14
2022-08-27T17:19:09.566Z,46.31
2022-08-27T17:21:37.300Z,46.05
2022-08-27T17:24:04.866Z,46.14
2022-08-27T17:26:37.333Z,46.17
2022-08-27T17:29:03.813Z,46.17
2022-08-27T17:31:33.987Z,46.32
2022-08-27T17:34:01.139Z,46.61
2022-08-27T17:36:30.423Z,46.57
2022-08-27T17:38:57.597Z,47.11
2022-08-27T17:41:39.400Z,46.50
2022-08-27T17:44:10.921Z,46.65
2022-08-27T17:46:37.409Z,47.11
2022-08-27T17:49:03.963Z,47.18
2022-08-27T17:51:32.051Z,47.02
2022-08-27T17:54:01.067Z,46.30
2022-08-27T17:56:29.138Z,46.62
2022-08-27T17:58:56.124Z,46.74
2022-08-27T18:01:31.593Z,46.86
2022-08-27T18:03:59.530Z,47.17
2022-08-27T18:06:29.415Z,46.94
2022-08-27T18:08:56.017Z,46.66
2022-08-27T18:11:22.911Z,46.64
2022-08-27T18:13:54.068Z,46.85
2022-08-27T18:16:20.921Z,46.97
2022-08-27T18:18:47.595Z,47.09
2022-08-27T18:21:25.206Z,47.05
2022-08-27T18:23:53.708Z,47.35
2022-08-27T18:26:21.692Z,47.78
2022-08-27T18:28:48.996Z,47.47
2022-08-27T18:31:18.747Z,48.09
2022-08-27T18:33:45.825Z,48.20
2022-08-27T18:36:12.713Z,47.69
2022-08-27T18:38:39.564Z,47.68
2022-08-27T18:41:08.459Z,47.54
2022-08-27T18:43:35.857Z,47.43
2022-08-27T18:46:03.553Z,47.55
2022-08-27T18:48:30.151Z,47.40
2022-08-27T18:50:59.412Z,47.17
2022-08-27T18:53:29.609Z,47.15
2022-08-27T18:55:57.492Z,47.12
2022-08-27T18:58:24.794Z,47.22
2022-08-27T19:00:55.697Z,47.06
2022-08-27T19:03:29.453Z,46.98
2022-08-27T19:05:56.299Z,47.10
2022-08-27T19:08:24.302Z,46.66
2022-08-27T19:10:51.173Z,46.97
2022-08-27T19:13:18.236Z,46.94
2022-08-27T19:15:51.769Z,47.18
2022-08-27T19:18:18.747Z,46.92
2022-08-27T19:20:45.173Z,47.41
2022-08-27T19:23:11.663Z,47.11
2022-08-27T19:25:38.413Z,47.45
2022-08-27T19:28:05.008Z,47.55
2022-08-27T19:30:31.605Z,47.30
2022-08-27T19:32:58.300Z,47.10
2022-08-27T19:35:25.262Z,47.55
2022-08-27T19:37:52.733Z,47.26
2022-08-27T19:40:19.308Z,47.70
2022-08-27T19:42:45.782Z,47.38
2022-08-27T19:45:12.216Z,47.54
2022-08-27T19:47:39.031Z,47.74
2022-08-27T19:50:05.931Z,48.03
2022-08-27T19:52:32.382Z,47.98
2022-08-27T19:55:14.777Z,48.01
2022-08-27T19:57:43.301Z,47.85
2022-08-27T20:00:12.610Z,47.88
2022-08-27T20:02:39.365Z,48.33
2022-08-27T20:05:17.992Z,48.17
2022-08-27T20:07:45.484Z,48.17
2022-08-27T20:10:11.998Z,48.47
2022-08-27T20:12:38.613Z,48.03
2022-08-27T20:15:06.373Z,47.77
2022-08-27T20:17:34.600Z,47.99
2022-08-27T20:20:01.226Z,47.65
2022-08-27T20:22:27.780Z,47.67
2022-08-27T20:24:54.255Z,48.13
2022-08-27T20:27:20.803Z,48.31
2022-08-27T20:29:47.547Z,47.99
2022-08-27T20:32:14.016Z,48.06
2022-08-27T20:34:40.573Z,47.88
2022-08-27T20:37:07.376Z,48.07
2022-08-27T20:39:34.070Z,48.24
2022-08-27T20:42:00.545Z,48.20
2022-08-27T20:44:27.028Z,48.64
2022-08-27T20:46:59.933Z,48.63
2022-08-27T20:49:29.210Z,48.44
2022-08-27T20:52:02.651Z,48.36
2022-08-27T20:54:30.333Z,48.74
2022-08-27T20:56:58.442Z,48.75
2022-08-27T20:59:43.505Z,48.92
2022-08-27T21:02:12.477Z,48.87
2022-08-27T21:04:47.970Z,48.87
2022-08-27T21:07:15.849Z,48.91
2022-08-27T21:09:56.585Z,49.00
2022-08-27T21:12:27.714Z,48.95
2022-08-27T21:14:55.894Z,49.05
2022-08-27T21:17:27.121Z,49.00
2022-08-27T21:19:54.424Z,49.31
2022-08-27T21:22:21.625Z,49.35
2022-08-27T21:24:48.471Z,49.43
2022-08-27T21:27:17.142Z,49.81
2022-08-27T21:29:44.884Z,49.86
2022-08-27T21:32:12.417Z,49.75
2022-08-27T21:34:39.223Z,50.00
2022-08-27T21:37:05.706Z,50.02
2022-08-27T21:39:33.107Z,50.09
2022-08-27T21:42:01.468Z,50.02
2022-08-27T21:44:29.144Z,49.96
2022-08-27T21:46:55.818Z,50.18
2022-08-27T21:49:22.292Z,49.80
2022-08-27T21:51:48.732Z,50.04
2022-08-27T21:54:15.312Z,49.94
2022-08-27T21:56:42.777Z,50.21
2022-08-27T21:59:09.548Z,49.89
2022-08-27T22:01:36.803Z,49.88
2022-08-27T22:04:03.783Z,49.51
2022-08-27T22:06:30.500Z,49.32
2022-08-27T22:08:57.102Z,49.28
2022-08-27T22:11:24.545Z,48.91
2022-08-27T22:13:52.045Z,48.79
2022-08-27T22:16:18.979Z,48.55
2022-08-27T22:18:45.607Z,48.00
2022-08-27T22:21:12.259Z,48.02
2022-08-27T22:23:38.773Z,48.02
2022-08-27T22:26:10.493Z,47.99
2022-08-27T22:28:36.992Z,47.99
2022-08-27T22:31:03.449Z,47.80
2022-08-27T22:33:29.933Z,47.71
2022-08-27T22:35:56.577Z,47.44
2022-08-27T22:38:23.043Z,47.27
2022-08-27T22:40:51.307Z,47.44
2022-08-27T22:43:19.415Z,47.11
2022-08-27T22:45:45.889Z,47.21
2022-08-27T22:48:12.738Z,47.65
2022-08-27T22:50:39.369Z,47.17
2022-08-27T22:53:05.941Z,47.52
2022-08-27T22:55:32.438Z,47.60
2022-08-27T22:57:58.879Z,47.40
2022-08-27T23:00:29.996Z,47.49
2022-08-27T23:02:56.927Z,47.10
2022-08-27T23:05:24.483Z,46.93
2022-08-27T23:07:53.237Z,47.16
2022-08-27T23:10:22.353Z,46.99
2022-08-27T23:12:48.883Z,46.76
2022-08-27T23:15:17.762Z,46.55
2022-08-27T23:17:44.698Z,46.72
2022-08-27T23:20:11.848Z,46.48
2022-08-27T23:22:38.852Z,46.37
2022-08-27T23:25:26.322Z,46.41
2022-08-27T23:27:53.443Z,46.66
2022-08-27T23:30:20.119Z,46.35
2022-08-27T23:32:53.755Z,46.57
2022-08-27T23:35:22.575Z,46.36
2022-08-27T23:37:50.417Z,46.64
2022-08-27T23:40:18.262Z,46.96
2022-08-27T23:42:45.643Z,47.32
2022-08-27T23:45:16.287Z,46.78
2022-08-27T23:47:42.969Z,46.77
2022-08-27T23:50:10.579Z,47.06
2022-08-27T23:52:37.912Z,47.35
2022-08-27T23:55:05.161Z,47.40
2022-08-27T23:57:31.647Z,47.80
2022-08-27T23:59:58.156Z,47.78
